sensor_id;sensor_type;location;lat;lon;timestamp;P1;durP1;ratioP1;P2;durP2;ratioP2
9775;SDS011;4927;52.472;13.108;2022-12-07T00:00:25;10.73;;;9.82;;
9775;SDS011;4927;52.472;13.108;2022-12-07T00:05:32;10.18;;;9.27;;
9775;SDS011;4927;52.472;13.108;2022-12-07T00:10:39;8.82;;;8.23;;
9775;SDS011;4927;52.472;13.108;2022-12-07T00:15:46;8.20;;;7.70;;
9775;SDS011;4927;52.472;13.108;2022-12-07T00:20:52;7.60;;;7.10;;
9775;SDS011;4927;52.472;13.108;2022-12-07T00:26:04;7.75;;;7.35;;
9775;SDS011;4927;52.472;13.108;2022-12-07T00:31:10;7.60;;;7.10;;
9775;SDS011;4927;52.472;13.108;2022-12-07T00:36:17;7.97;;;7.57;;
9775;SDS011;4927;52.472;13.108;2022-12-07T00:41:23;7.50;;;7.10;;
9775;SDS011;4927;52.472;13.108;2022-12-07T00:46:32;7.10;;;6.70;;
9775;SDS011;4927;52.472;13.108;2022-12-07T00:51:40;7.00;;;6.70;;
9775;SDS011;4927;52.472;13.108;2022-12-07T00:56:46;6.95;;;6.45;;
9775;SDS011;4927;52.472;13.108;2022-12-07T01:01:53;6.30;;;5.80;;
9775;SDS011;4927;52.472;13.108;2022-12-07T01:07:00;6.10;;;5.80;;
9775;SDS011;4927;52.472;13.108;2022-12-07T01:12:06;6.55;;;6.25;;
9775;SDS011;4927;52.472;13.108;2022-12-07T01:17:16;6.10;;;5.90;;
9775;SDS011;4927;52.472;13.108;2022-12-07T01:22:22;5.80;;;5.60;;
9775;SDS011;4927;52.472;13.108;2022-12-07T01:27:33;6.00;;;5.80;;
9775;SDS011;4927;52.472;13.108;2022-12-07T01:32:39;6.90;;;6.60;;
9775;SDS011;4927;52.472;13.108;2022-12-07T01:37:45;6.85;;;6.50;;
9775;SDS011;4927;52.472;13.108;2022-12-07T01:42:52;7.22;;;6.72;;
9775;SDS011;4927;52.472;13.108;2022-12-07T01:47:58;7.40;;;6.90;;
9775;SDS011;4927;52.472;13.108;2022-12-07T01:53:09;6.65;;;6.22;;
9775;SDS011;4927;52.472;13.108;2022-12-07T01:58:15;6.70;;;6.30;;
9775;SDS011;4927;52.472;13.108;2022-12-07T02:03:27;6.30;;;5.90;;
9775;SDS011;4927;52.472;13.108;2022-12-07T02:08:34;6.70;;;6.30;;
9775;SDS011;4927;52.472;13.108;2022-12-07T02:13:39;7.03;;;6.57;;
9775;SDS011;4927;52.472;13.108;2022-12-07T02:24:36;7.75;;;7.25;;
9775;SDS011;4927;52.472;13.108;2022-12-07T02:29:43;8.35;;;7.50;;
9775;SDS011;4927;52.472;13.108;2022-12-07T02:34:48;8.20;;;7.60;;
9775;SDS011;4927;52.472;13.108;2022-12-07T02:39:58;8.05;;;7.40;;
9775;SDS011;4927;52.472;13.108;2022-12-07T02:45:04;8.68;;;7.87;;
9775;SDS011;4927;52.472;13.108;2022-12-07T02:50:11;8.60;;;7.90;;
9775;SDS011;4927;52.472;13.108;2022-12-07T02:55:18;9.00;;;8.30;;
9775;SDS011;4927;52.472;13.108;2022-12-07T03:00:24;9.90;;;9.00;;
9775;SDS011;4927;52.472;13.108;2022-12-07T03:05:43;11.68;;;10.48;;
9775;SDS011;4927;52.472;13.108;2022-12-07T03:10:56;11.77;;;10.38;;
9775;SDS011;4927;52.472;13.108;2022-12-07T03:21:20;11.30;;;10.20;;
9775;SDS011;4927;52.472;13.108;2022-12-07T03:26:28;11.38;;;10.15;;
9775;SDS011;4927;52.472;13.108;2022-12-07T03:31:37;13.20;;;11.30;;
9775;SDS011;4927;52.472;13.108;2022-12-07T03:36:47;13.80;;;11.50;;
9775;SDS011;4927;52.472;13.108;2022-12-07T03:41:53;14.13;;;11.80;;
9775;SDS011;4927;52.472;13.108;2022-12-07T03:47:03;15.88;;;12.02;;
9775;SDS011;4927;52.472;13.108;2022-12-07T03:57:34;16.75;;;12.90;;
9775;SDS011;4927;52.472;13.108;2022-12-07T04:02:40;18.08;;;13.60;;
9775;SDS011;4927;52.472;13.108;2022-12-07T04:07:50;19.27;;;13.45;;
9775;SDS011;4927;52.472;13.108;2022-12-07T04:12:57;18.90;;;14.30;;
9775;SDS011;4927;52.472;13.108;2022-12-07T04:18:03;21.85;;;15.90;;
9775;SDS011;4927;52.472;13.108;2022-12-07T04:23:09;22.65;;;17.17;;
9775;SDS011;4927;52.472;13.108;2022-12-07T04:28:16;21.77;;;15.50;;
9775;SDS011;4927;52.472;13.108;2022-12-07T04:33:20;27.35;;;18.02;;
9775;SDS011;4927;52.472;13.108;2022-12-07T04:38:30;33.25;;;19.08;;
9775;SDS011;4927;52.472;13.108;2022-12-07T04:43:40;25.90;;;17.40;;
9775;SDS011;4927;52.472;13.108;2022-12-07T04:48:51;27.77;;;17.98;;
9775;SDS011;4927;52.472;13.108;2022-12-07T04:53:57;28.15;;;18.20;;
9775;SDS011;4927;52.472;13.108;2022-12-07T04:59:08;29.35;;;19.60;;
9775;SDS011;4927;52.472;13.108;2022-12-07T05:04:14;34.13;;;20.30;;
9775;SDS011;4927;52.472;13.108;2022-12-07T05:09:20;32.85;;;19.87;;
9775;SDS011;4927;52.472;13.108;2022-12-07T05:14:26;37.58;;;21.40;;
9775;SDS011;4927;52.472;13.108;2022-12-07T05:19:31;35.40;;;20.70;;
9775;SDS011;4927;52.472;13.108;2022-12-07T05:24:35;35.80;;;19.92;;
9775;SDS011;4927;52.472;13.108;2022-12-07T05:34:58;40.70;;;21.83;;
9775;SDS011;4927;52.472;13.108;2022-12-07T05:40:05;38.75;;;20.77;;
9775;SDS011;4927;52.472;13.108;2022-12-07T05:45:12;40.25;;;22.58;;
9775;SDS011;4927;52.472;13.108;2022-12-07T05:50:18;43.85;;;21.75;;
9775;SDS011;4927;52.472;13.108;2022-12-07T05:55:25;38.70;;;21.80;;
9775;SDS011;4927;52.472;13.108;2022-12-07T06:00:32;42.58;;;23.15;;
9775;SDS011;4927;52.472;13.108;2022-12-07T06:05:43;49.08;;;24.00;;
9775;SDS011;4927;52.472;13.108;2022-12-07T06:10:47;39.97;;;22.95;;
9775;SDS011;4927;52.472;13.108;2022-12-07T06:15:53;34.10;;;21.20;;
9775;SDS011;4927;52.472;13.108;2022-12-07T06:20:59;44.35;;;23.87;;
9775;SDS011;4927;52.472;13.108;2022-12-07T06:26:06;42.00;;;23.23;;
9775;SDS011;4927;52.472;13.108;2022-12-07T06:31:12;39.80;;;23.05;;
9775;SDS011;4927;52.472;13.108;2022-12-07T06:36:18;42.30;;;23.20;;
9775;SDS011;4927;52.472;13.108;2022-12-07T06:41:24;41.08;;;23.55;;
9775;SDS011;4927;52.472;13.108;2022-12-07T06:46:31;37.30;;;22.00;;
9775;SDS011;4927;52.472;13.108;2022-12-07T06:51:36;36.07;;;21.40;;
9775;SDS011;4927;52.472;13.108;2022-12-07T06:56:42;39.43;;;22.70;;
9775;SDS011;4927;52.472;13.108;2022-12-07T07:01:48;37.42;;;22.50;;
9775;SDS011;4927;52.472;13.108;2022-12-07T07:06:52;36.97;;;21.90;;
9775;SDS011;4927;52.472;13.108;2022-12-07T07:11:59;37.40;;;21.77;;
9775;SDS011;4927;52.472;13.108;2022-12-07T07:17:10;35.63;;;21.07;;
9775;SDS011;4927;52.472;13.108;2022-12-07T07:22:16;34.00;;;20.43;;
9775;SDS011;4927;52.472;13.108;2022-12-07T07:27:23;31.80;;;20.12;;
9775;SDS011;4927;52.472;13.108;2022-12-07T07:32:27;29.00;;;19.37;;
9775;SDS011;4927;52.472;13.108;2022-12-07T07:37:33;29.52;;;18.60;;
9775;SDS011;4927;52.472;13.108;2022-12-07T07:42:40;25.47;;;17.27;;
9775;SDS011;4927;52.472;13.108;2022-12-07T07:47:46;22.37;;;15.73;;
9775;SDS011;4927;52.472;13.108;2022-12-07T07:52:53;23.17;;;14.45;;
9775;SDS011;4927;52.472;13.108;2022-12-07T07:57:59;15.55;;;12.40;;
9775;SDS011;4927;52.472;13.108;2022-12-07T08:03:05;13.02;;;9.95;;
9775;SDS011;4927;52.472;13.108;2022-12-07T08:08:16;9.33;;;8.43;;
9775;SDS011;4927;52.472;13.108;2022-12-07T08:13:26;7.50;;;6.83;;
9775;SDS011;4927;52.472;13.108;2022-12-07T08:18:36;6.90;;;5.80;;
9775;SDS011;4927;52.472;13.108;2022-12-07T08:23:41;6.55;;;5.95;;
9775;SDS011;4927;52.472;13.108;2022-12-07T08:28:48;6.18;;;5.57;;
9775;SDS011;4927;52.472;13.108;2022-12-07T08:33:52;4.57;;;4.27;;
9775;SDS011;4927;52.472;13.108;2022-12-07T08:38:56;3.63;;;3.50;;
9775;SDS011;4927;52.472;13.108;2022-12-07T08:44:04;3.90;;;3.47;;
9775;SDS011;4927;52.472;13.108;2022-12-07T08:49:12;3.90;;;3.70;;
9775;SDS011;4927;52.472;13.108;2022-12-07T08:54:17;3.70;;;3.40;;
9775;SDS011;4927;52.472;13.108;2022-12-07T08:59:23;3.90;;;3.00;;
9775;SDS011;4927;52.472;13.108;2022-12-07T09:04:29;2.90;;;2.80;;
9775;SDS011;4927;52.472;13.108;2022-12-07T09:09:35;2.10;;;2.00;;
9775;SDS011;4927;52.472;13.108;2022-12-07T09:14:42;2.27;;;2.17;;
9775;SDS011;4927;52.472;13.108;2022-12-07T09:19:53;2.30;;;2.20;;
9775;SDS011;4927;52.472;13.108;2022-12-07T09:25:00;2.77;;;2.33;;
9775;SDS011;4927;52.472;13.108;2022-12-07T09:30:06;2.73;;;2.63;;
9775;SDS011;4927;52.472;13.108;2022-12-07T09:35:13;3.47;;;2.60;;
9775;SDS011;4927;52.472;13.108;2022-12-07T09:40:19;2.72;;;2.53;;
9775;SDS011;4927;52.472;13.108;2022-12-07T09:45:27;2.70;;;2.60;;
9775;SDS011;4927;52.472;13.108;2022-12-07T09:50:47;2.50;;;2.40;;
9775;SDS011;4927;52.472;13.108;2022-12-07T09:55:56;2.60;;;2.50;;
9775;SDS011;4927;52.472;13.108;2022-12-07T10:06:26;3.77;;;3.57;;
9775;SDS011;4927;52.472;13.108;2022-12-07T10:11:33;3.50;;;3.30;;
9775;SDS011;4927;52.472;13.108;2022-12-07T10:16:40;2.92;;;2.72;;
9775;SDS011;4927;52.472;13.108;2022-12-07T10:27:02;3.40;;;3.20;;
9775;SDS011;4927;52.472;13.108;2022-12-07T10:37:40;3.97;;;3.77;;
9775;SDS011;4927;52.472;13.108;2022-12-07T10:48:13;4.10;;;4.00;;
9775;SDS011;4927;52.472;13.108;2022-12-07T10:53:25;4.40;;;4.10;;
9775;SDS011;4927;52.472;13.108;2022-12-07T11:04:12;4.00;;;3.80;;
9775;SDS011;4927;52.472;13.108;2022-12-07T11:14:58;3.90;;;3.70;;
9775;SDS011;4927;52.472;13.108;2022-12-07T11:20:13;4.20;;;3.50;;
9775;SDS011;4927;52.472;13.108;2022-12-07T11:30:57;3.50;;;3.40;;
9775;SDS011;4927;52.472;13.108;2022-12-07T11:41:28;4.10;;;3.00;;
9775;SDS011;4927;52.472;13.108;2022-12-07T11:46:43;2.80;;;2.30;;
9775;SDS011;4927;52.472;13.108;2022-12-07T11:51:47;2.70;;;2.60;;
9775;SDS011;4927;52.472;13.108;2022-12-07T11:56:52;2.90;;;2.40;;
9775;SDS011;4927;52.472;13.108;2022-12-07T12:07:22;2.90;;;2.70;;
9775;SDS011;4927;52.472;13.108;2022-12-07T12:12:37;3.03;;;2.83;;
9775;SDS011;4927;52.472;13.108;2022-12-07T12:17:46;3.00;;;2.80;;
9775;SDS011;4927;52.472;13.108;2022-12-07T12:22:52;3.07;;;2.90;;
9775;SDS011;4927;52.472;13.108;2022-12-07T12:27:57;3.30;;;2.40;;
9775;SDS011;4927;52.472;13.108;2022-12-07T12:33:04;2.60;;;2.40;;
9775;SDS011;4927;52.472;13.108;2022-12-07T12:48:49;2.67;;;2.47;;
9775;SDS011;4927;52.472;13.108;2022-12-07T12:53:53;5.43;;;3.20;;
9775;SDS011;4927;52.472;13.108;2022-12-07T13:04:29;4.10;;;2.10;;
9775;SDS011;4927;52.472;13.108;2022-12-07T13:09:34;3.27;;;2.20;;
9775;SDS011;4927;52.472;13.108;2022-12-07T13:14:39;3.13;;;1.70;;
9775;SDS011;4927;52.472;13.108;2022-12-07T13:19:54;3.73;;;2.00;;
9775;SDS011;4927;52.472;13.108;2022-12-07T13:25:07;2.40;;;1.80;;
9775;SDS011;4927;52.472;13.108;2022-12-07T13:30:14;2.07;;;1.87;;
9775;SDS011;4927;52.472;13.108;2022-12-07T13:40:38;2.07;;;1.87;;
9775;SDS011;4927;52.472;13.108;2022-12-07T13:45:45;6.70;;;2.73;;
9775;SDS011;4927;52.472;13.108;2022-12-07T13:50:55;2.27;;;2.00;;
9775;SDS011;4927;52.472;13.108;2022-12-07T13:56:00;2.10;;;1.90;;
9775;SDS011;4927;52.472;13.108;2022-12-07T14:01:07;2.10;;;2.00;;
9775;SDS011;4927;52.472;13.108;2022-12-07T14:06:15;7.20;;;2.20;;
9775;SDS011;4927;52.472;13.108;2022-12-07T14:11:19;2.90;;;2.23;;
9775;SDS011;4927;52.472;13.108;2022-12-07T14:16:29;2.30;;;1.80;;
9775;SDS011;4927;52.472;13.108;2022-12-07T14:21:33;4.03;;;1.80;;
9775;SDS011;4927;52.472;13.108;2022-12-07T14:26:40;3.03;;;1.90;;
9775;SDS011;4927;52.472;13.108;2022-12-07T14:31:47;2.60;;;2.00;;
9775;SDS011;4927;52.472;13.108;2022-12-07T14:36:51;2.83;;;1.80;;
9775;SDS011;4927;52.472;13.108;2022-12-07T14:41:58;4.43;;;3.40;;
9775;SDS011;4927;52.472;13.108;2022-12-07T14:47:04;6.30;;;4.10;;
9775;SDS011;4927;52.472;13.108;2022-12-07T14:52:13;5.43;;;5.10;;
9775;SDS011;4927;52.472;13.108;2022-12-07T14:57:19;11.43;;;6.77;;
9775;SDS011;4927;52.472;13.108;2022-12-07T15:02:26;6.50;;;5.30;;
9775;SDS011;4927;52.472;13.108;2022-12-07T15:07:32;5.03;;;3.00;;
9775;SDS011;4927;52.472;13.108;2022-12-07T15:12:38;6.75;;;4.90;;
9775;SDS011;4927;52.472;13.108;2022-12-07T15:17:45;5.87;;;4.33;;
9775;SDS011;4927;52.472;13.108;2022-12-07T15:22:51;2.80;;;2.30;;
9775;SDS011;4927;52.472;13.108;2022-12-07T15:27:57;4.83;;;1.90;;
9775;SDS011;4927;52.472;13.108;2022-12-07T15:33:03;13.97;;;7.33;;
9775;SDS011;4927;52.472;13.108;2022-12-07T15:38:08;10.43;;;5.67;;
9775;SDS011;4927;52.472;13.108;2022-12-07T15:43:13;12.05;;;7.87;;
9775;SDS011;4927;52.472;13.108;2022-12-07T15:48:25;5.53;;;3.20;;
9775;SDS011;4927;52.472;13.108;2022-12-07T15:53:31;20.55;;;11.65;;
9775;SDS011;4927;52.472;13.108;2022-12-07T15:58:37;4.85;;;3.85;;
9775;SDS011;4927;52.472;13.108;2022-12-07T16:03:42;5.10;;;3.93;;
9775;SDS011;4927;52.472;13.108;2022-12-07T16:08:48;4.13;;;3.40;;
9775;SDS011;4927;52.472;13.108;2022-12-07T16:13:55;8.15;;;5.10;;
9775;SDS011;4927;52.472;13.108;2022-12-07T16:19:01;7.68;;;4.40;;
9775;SDS011;4927;52.472;13.108;2022-12-07T16:24:08;5.55;;;2.80;;
9775;SDS011;4927;52.472;13.108;2022-12-07T16:29:12;3.53;;;3.22;;
9775;SDS011;4927;52.472;13.108;2022-12-07T16:34:17;4.37;;;3.17;;
9775;SDS011;4927;52.472;13.108;2022-12-07T16:39:23;10.50;;;2.70;;
9775;SDS011;4927;52.472;13.108;2022-12-07T16:44:30;4.32;;;2.65;;
9775;SDS011;4927;52.472;13.108;2022-12-07T16:49:36;5.00;;;2.80;;
9775;SDS011;4927;52.472;13.108;2022-12-07T16:54:42;4.32;;;3.00;;
9775;SDS011;4927;52.472;13.108;2022-12-07T16:59:49;4.15;;;2.87;;
9775;SDS011;4927;52.472;13.108;2022-12-07T17:04:55;5.45;;;2.80;;
9775;SDS011;4927;52.472;13.108;2022-12-07T17:10:01;2.90;;;2.60;;
9775;SDS011;4927;52.472;13.108;2022-12-07T17:15:09;4.07;;;2.90;;
9775;SDS011;4927;52.472;13.108;2022-12-07T17:20:23;4.87;;;4.03;;
9775;SDS011;4927;52.472;13.108;2022-12-07T17:25:29;6.50;;;3.70;;
9775;SDS011;4927;52.472;13.108;2022-12-07T17:30:33;6.22;;;3.10;;
9775;SDS011;4927;52.472;13.108;2022-12-07T17:35:40;6.22;;;3.33;;
9775;SDS011;4927;52.472;13.108;2022-12-07T17:40:46;4.43;;;3.00;;
9775;SDS011;4927;52.472;13.108;2022-12-07T17:45:52;5.30;;;3.30;;
9775;SDS011;4927;52.472;13.108;2022-12-07T17:50:59;5.75;;;3.00;;
9775;SDS011;4927;52.472;13.108;2022-12-07T17:56:11;4.20;;;3.05;;
9775;SDS011;4927;52.472;13.108;2022-12-07T18:01:17;3.00;;;2.80;;
9775;SDS011;4927;52.472;13.108;2022-12-07T18:06:23;3.85;;;3.47;;
9775;SDS011;4927;52.472;13.108;2022-12-07T18:11:31;3.78;;;3.37;;
9775;SDS011;4927;52.472;13.108;2022-12-07T18:16:38;5.50;;;2.92;;
9775;SDS011;4927;52.472;13.108;2022-12-07T18:32:58;3.70;;;3.30;;
9775;SDS011;4927;52.472;13.108;2022-12-07T18:38:05;4.45;;;4.05;;
9775;SDS011;4927;52.472;13.108;2022-12-07T18:43:11;4.20;;;3.72;;
9775;SDS011;4927;52.472;13.108;2022-12-07T18:48:18;4.18;;;3.78;;
9775;SDS011;4927;52.472;13.108;2022-12-07T18:53:44;4.37;;;3.97;;
9775;SDS011;4927;52.472;13.108;2022-12-07T18:58:52;4.90;;;4.40;;
9775;SDS011;4927;52.472;13.108;2022-12-07T19:04:06;3.33;;;3.00;;
9775;SDS011;4927;52.472;13.108;2022-12-07T19:14:47;4.00;;;3.77;;
9775;SDS011;4927;52.472;13.108;2022-12-07T19:19:57;4.10;;;3.80;;
9775;SDS011;4927;52.472;13.108;2022-12-07T19:25:04;4.12;;;3.80;;
9775;SDS011;4927;52.472;13.108;2022-12-07T19:30:10;3.65;;;3.45;;
9775;SDS011;4927;52.472;13.108;2022-12-07T19:35:49;9.77;;;3.50;;
9775;SDS011;4927;52.472;13.108;2022-12-07T19:42:06;3.93;;;3.83;;
9775;SDS011;4927;52.472;13.108;2022-12-07T19:47:16;3.75;;;3.42;;
9775;SDS011;4927;52.472;13.108;2022-12-07T19:52:27;5.32;;;4.82;;
9775;SDS011;4927;52.472;13.108;2022-12-07T19:57:33;6.35;;;5.10;;
9775;SDS011;4927;52.472;13.108;2022-12-07T20:02:39;5.50;;;5.00;;
9775;SDS011;4927;52.472;13.108;2022-12-07T20:07:45;7.28;;;6.50;;
9775;SDS011;4927;52.472;13.108;2022-12-07T20:12:52;7.97;;;5.90;;
9775;SDS011;4927;52.472;13.108;2022-12-07T20:18:16;9.25;;;8.30;;
9775;SDS011;4927;52.472;13.108;2022-12-07T20:23:24;9.07;;;7.07;;
9775;SDS011;4927;52.472;13.108;2022-12-07T20:28:29;15.38;;;10.45;;
9775;SDS011;4927;52.472;13.108;2022-12-07T20:33:35;8.02;;;6.70;;
9775;SDS011;4927;52.472;13.108;2022-12-07T20:38:46;5.80;;;5.40;;
9775;SDS011;4927;52.472;13.108;2022-12-07T20:43:56;10.50;;;7.00;;
9775;SDS011;4927;52.472;13.108;2022-12-07T20:49:02;4.82;;;4.43;;
9775;SDS011;4927;52.472;13.108;2022-12-07T20:54:10;4.60;;;4.20;;
9775;SDS011;4927;52.472;13.108;2022-12-07T20:59:16;4.50;;;4.10;;
9775;SDS011;4927;52.472;13.108;2022-12-07T21:04:22;15.68;;;10.15;;
9775;SDS011;4927;52.472;13.108;2022-12-07T21:09:28;7.40;;;6.80;;
9775;SDS011;4927;52.472;13.108;2022-12-07T21:14:38;5.87;;;5.47;;
9775;SDS011;4927;52.472;13.108;2022-12-07T21:19:43;7.55;;;5.20;;
9775;SDS011;4927;52.472;13.108;2022-12-07T21:24:50;5.72;;;4.47;;
9775;SDS011;4927;52.472;13.108;2022-12-07T21:41:55;4.28;;;3.97;;
9775;SDS011;4927;52.472;13.108;2022-12-07T21:47:02;5.15;;;4.40;;
9775;SDS011;4927;52.472;13.108;2022-12-07T21:52:08;5.40;;;4.80;;
9775;SDS011;4927;52.472;13.108;2022-12-07T21:57:14;5.60;;;4.07;;
9775;SDS011;4927;52.472;13.108;2022-12-07T22:07:06;3.93;;;3.77;;
9775;SDS011;4927;52.472;13.108;2022-12-07T22:23:55;4.27;;;3.97;;
9775;SDS011;4927;52.472;13.108;2022-12-07T22:29:01;6.00;;;5.32;;
9775;SDS011;4927;52.472;13.108;2022-12-07T22:34:12;11.55;;;7.05;;
9775;SDS011;4927;52.472;13.108;2022-12-07T22:39:17;12.35;;;8.50;;
9775;SDS011;4927;52.472;13.108;2022-12-07T22:44:24;10.63;;;8.00;;
9775;SDS011;4927;52.472;13.108;2022-12-07T22:49:30;12.40;;;8.20;;
9775;SDS011;4927;52.472;13.108;2022-12-07T22:54:34;8.00;;;6.10;;
9775;SDS011;4927;52.472;13.108;2022-12-07T22:59:44;5.80;;;5.40;;
9775;SDS011;4927;52.472;13.108;2022-12-07T23:04:51;5.30;;;4.78;;
9775;SDS011;4927;52.472;13.108;2022-12-07T23:09:57;7.72;;;5.50;;
9775;SDS011;4927;52.472;13.108;2022-12-07T23:15:04;7.55;;;5.40;;
9775;SDS011;4927;52.472;13.108;2022-12-07T23:20:11;5.28;;;4.87;;
9775;SDS011;4927;52.472;13.108;2022-12-07T23:25:18;5.60;;;4.70;;
9775;SDS011;4927;52.472;13.108;2022-12-07T23:30:24;4.85;;;4.45;;
9775;SDS011;4927;52.472;13.108;2022-12-07T23:35:30;12.18;;;10.98;;
9775;SDS011;4927;52.472;13.108;2022-12-07T23:40:37;5.45;;;4.95;;
9775;SDS011;4927;52.472;13.108;2022-12-07T23:45:44;6.10;;;5.00;;
9775;SDS011;4927;52.472;13.108;2022-12-07T23:50:50;5.82;;;5.37;;
9775;SDS011;4927;52.472;13.108;2022-12-07T23:55:56;9.65;;;6.25;;
